Fair Haven, Vermont
Current Conditions -  °F | °C
As of 5:15 AM on Saturday 22 Nov 2014 (Local Time) from KRUT Reporting Station
Few Clouds Few Clouds  
Wind Chill: 21°   Ceiling: Unl
Heat Index: 21°   Visibility: 10mi
Dew Point: 12°   Wind: 3mph
Humidity: 68%   Direction: 230°SW
Pressure: 30.32"   Gusts: NA
Location:  43.6°N, 73.26°W
Report Text: KRUT 221015Z 23003KT 10SM FEW090 M06/M11 A3032 RMK AO1
Loading
Personal Weather Stations






























Interactive Weather Map New forecast layout! Learn more

10-Day Weather Forecast

Advertisements
Track Severe Weather on mobile